Time;durP1;ratioP1;P1;durP2;ratioP2;P2;SDS_P1;SDS_P2;PMS_P1;PMS_P2;Temp;Humidity;BMP_temperature;BMP_pressure;BME280_temperature;BME280_humidity;BME280_pressure;Samples;Min_cycle;Max_cycle;Signal;HPM_P1;HPM_P2
2022/12/18 00:01:23;;;;;;;121.18;30.65;;;;;;;;;;5054045;28;20079;-80
2022/12/18 00:03:49;;;;;;;125.85;30.75;;;;;;;;;;5053875;28;20509;-80
2022/12/18 00:06:16;;;;;;;109.40;29.13;;;;;;;;;;5054017;28;20045;-80
2022/12/18 00:08:42;;;;;;;129.25;32.25;;;;;;;;;;5053663;28;20044;-80
2022/12/18 00:11:09;;;;;;;88.30;23.85;;;;;;;;;;5073735;28;20040;-80
2022/12/18 00:13:35;;;;;;;108.47;27.42;;;;;;;;;;5046976;28;20502;-80
2022/12/18 00:16:06;;;;;;;130.18;32.38;;;;;;;;;;5080370;28;20051;-80
2022/12/18 00:18:32;;;;;;;117.47;29.92;;;;;;;;;;5039376;28;20037;-80
2022/12/18 00:21:02;;;;;;;113.95;27.73;;;;;;;;;;5053596;28;20057;-80
2022/12/18 00:23:29;;;;;;;99.70;24.27;;;;;;;;;;5034077;28;20041;-80
2022/12/18 00:25:55;;;;;;;128.77;31.50;;;;;;;;;;5033615;28;20049;-80
2022/12/18 00:28:21;;;;;;;138.57;33.30;;;;;;;;;;5050471;28;20041;-80
2022/12/18 00:30:51;;;;;;;137.98;29.73;;;;;;;;;;5053619;28;20039;-80
2022/12/18 00:33:17;;;;;;;171.40;34.00;;;;;;;;;;5053845;28;20485;-80
2022/12/18 00:35:43;;;;;;;145.48;31.48;;;;;;;;;;5037521;28;20102;-80
2022/12/18 00:38:09;;;;;;;110.20;26.52;;;;;;;;;;5037102;28;20052;-80
2022/12/18 00:40:35;;;;;;;142.18;29.77;;;;;;;;;;5053747;28;20132;-80
2022/12/18 00:43:01;;;;;;;107.35;26.40;;;;;;;;;;5053528;28;20041;-80
2022/12/18 00:45:30;;;;;;;106.68;26.35;;;;;;;;;;5053774;28;20037;-80
2022/12/18 00:47:57;;;;;;;125.70;29.92;;;;;;;;;;5037063;28;20447;-80
2022/12/18 00:50:24;;;;;;;128.80;29.77;;;;;;;;;;5053387;28;20068;-80
2022/12/18 00:52:50;;;;;;;111.80;26.83;;;;;;;;;;5036784;28;20106;-80
2022/12/18 00:55:16;;;;;;;136.93;30.85;;;;;;;;;;5053445;28;20124;-80
2022/12/18 00:57:43;;;;;;;113.47;27.95;;;;;;;;;;5053234;28;20041;-80
2022/12/18 01:00:11;;;;;;;105.57;25.58;;;;;;;;;;5053157;28;20041;-80
2022/12/18 01:02:37;;;;;;;114.25;29.05;;;;;;;;;;5053006;28;20119;-80
2022/12/18 01:05:03;;;;;;;119.72;30.75;;;;;;;;;;5052881;28;20052;-80
2022/12/18 01:07:29;;;;;;;115.53;30.23;;;;;;;;;;5059942;28;20127;-80
2022/12/18 01:09:55;;;;;;;113.13;28.98;;;;;;;;;;5036437;28;20089;-80
2022/12/18 01:12:21;;;;;;;113.68;29.25;;;;;;;;;;5036306;28;20040;-80
2022/12/18 01:14:47;;;;;;;109.60;28.65;;;;;;;;;;5053074;28;20037;-80
2022/12/18 01:17:14;;;;;;;102.40;26.67;;;;;;;;;;5052695;28;20137;-81
2022/12/18 01:19:40;;;;;;;95.82;25.75;;;;;;;;;;5052880;28;20118;-80
2022/12/18 01:22:06;;;;;;;113.97;28.10;;;;;;;;;;5053003;28;20501;-80
2022/12/18 01:24:32;;;;;;;116.72;29.90;;;;;;;;;;5053004;28;20044;-80
2022/12/18 01:26:58;;;;;;;108.07;28.13;;;;;;;;;;5053051;28;20040;-80
2022/12/18 01:29:24;;;;;;;121.20;29.70;;;;;;;;;;5054348;28;20394;-80
2022/12/18 01:31:51;;;;;;;122.30;27.42;;;;;;;;;;5052212;28;20060;-80
2022/12/18 01:34:17;;;;;;;125.78;31.33;;;;;;;;;;5052872;28;20052;-80
2022/12/18 01:36:43;;;;;;;125.43;30.40;;;;;;;;;;5054229;28;20124;-80
2022/12/18 01:39:13;;;;;;;121.90;31.20;;;;;;;;;;5046109;28;20049;-80
2022/12/18 01:44:43;;;;;;;110.88;28.48;;;;;;;;;;5053553;28;20513;-80
2022/12/18 01:47:09;;;;;;;109.00;26.73;;;;;;;;;;5052577;28;20497;-80
2022/12/18 01:49:36;;;;;;;109.70;28.08;;;;;;;;;;5052764;28;20060;-80
2022/12/18 01:52:02;;;;;;;132.55;31.63;;;;;;;;;;5086045;28;20102;-80
2022/12/18 01:54:28;;;;;;;121.13;29.92;;;;;;;;;;5052225;28;20032;-80
2022/12/18 01:56:54;;;;;;;134.55;33.25;;;;;;;;;;5052246;28;20048;-80
2022/12/18 01:59:20;;;;;;;136.05;34.47;;;;;;;;;;5052175;28;20049;-80
2022/12/18 02:01:46;;;;;;;130.50;29.15;;;;;;;;;;5052631;28;20482;-80
2022/12/18 02:04:20;;;;;;;127.10;29.75;;;;;;;;;;5051980;28;20513;-80
2022/12/18 02:06:49;;;;;;;154.63;35.00;;;;;;;;;;5052321;28;20044;-80
2022/12/18 02:09:25;;;;;;;141.90;32.67;;;;;;;;;;5051848;28;20051;-80
2022/12/18 02:12:01;;;;;;;138.68;34.05;;;;;;;;;;5039497;28;20405;-81
2022/12/18 02:14:32;;;;;;;124.95;31.27;;;;;;;;;;5051660;28;20045;-80
2022/12/18 02:17:19;;;;;;;120.00;29.73;;;;;;;;;;5038085;28;20075;-80
2022/12/18 02:20:04;;;;;;;137.65;33.75;;;;;;;;;;5051968;28;20064;-80
2022/12/18 02:22:42;;;;;;;118.72;30.70;;;;;;;;;;5051868;28;20040;-80
2022/12/18 02:25:14;;;;;;;116.10;31.25;;;;;;;;;;5051878;28;20064;-80
2022/12/18 02:27:41;;;;;;;126.97;31.40;;;;;;;;;;5035393;28;20049;-80
2022/12/18 02:30:07;;;;;;;115.20;30.67;;;;;;;;;;5051487;28;20060;-80
2022/12/18 02:32:41;;;;;;;103.72;29.63;;;;;;;;;;5036755;28;20036;-80
2022/12/18 02:35:09;;;;;;;122.32;34.22;;;;;;;;;;5051736;28;20044;-80
2022/12/18 02:37:36;;;;;;;122.93;32.80;;;;;;;;;;5051631;28;20048;-80
2022/12/18 02:40:03;;;;;;;110.93;29.48;;;;;;;;;;5052812;28;20371;-80
2022/12/18 02:42:30;;;;;;;132.27;33.75;;;;;;;;;;5037723;28;20040;-80
2022/12/18 02:44:56;;;;;;;121.65;33.45;;;;;;;;;;5051465;28;20049;-80
2022/12/18 02:47:23;;;;;;;127.00;32.75;;;;;;;;;;5043362;28;20040;-80
2022/12/18 02:49:52;;;;;;;106.55;28.67;;;;;;;;;;5046238;28;20398;-80
2022/12/18 02:52:34;;;;;;;114.90;31.63;;;;;;;;;;5051591;28;20406;-80
2022/12/18 02:55:19;;;;;;;109.13;30.90;;;;;;;;;;5047063;28;20565;-80
2022/12/18 02:58:01;;;;;;;119.10;30.75;;;;;;;;;;5078336;28;20056;-80
2022/12/18 03:00:34;;;;;;;107.80;31.65;;;;;;;;;;5035007;28;20052;-80
2022/12/18 03:03:09;;;;;;;109.53;29.95;;;;;;;;;;5044034;28;20127;-80
2022/12/18 03:05:38;;;;;;;103.72;31.83;;;;;;;;;;5042463;28;20516;-80
2022/12/18 03:08:08;;;;;;;90.47;29.25;;;;;;;;;;5048064;28;20042;-80
2022/12/18 03:10:38;;;;;;;105.40;30.42;;;;;;;;;;5036410;28;20120;-80
2022/12/18 03:13:17;;;;;;;103.07;30.35;;;;;;;;;;5051594;28;20389;-80
2022/12/18 03:15:46;;;;;;;91.88;28.90;;;;;;;;;;5051269;28;20041;-80
2022/12/18 03:18:15;;;;;;;103.75;31.70;;;;;;;;;;5051367;28;20041;-80
2022/12/18 03:20:43;;;;;;;92.93;28.50;;;;;;;;;;5051114;28;20099;-80
2022/12/18 03:23:17;;;;;;;89.03;26.50;;;;;;;;;;5051434;28;20494;-80
2022/12/18 03:25:44;;;;;;;90.05;26.73;;;;;;;;;;5051494;28;20123;-80
2022/12/18 03:28:13;;;;;;;96.68;27.73;;;;;;;;;;5050954;28;20080;-80
2022/12/18 03:30:41;;;;;;;87.10;27.42;;;;;;;;;;5051304;28;20048;-80
2022/12/18 03:33:13;;;;;;;93.03;29.80;;;;;;;;;;5034423;28;20037;-80
2022/12/18 03:35:42;;;;;;;78.85;25.40;;;;;;;;;;5051062;28;20037;-80
2022/12/18 03:38:08;;;;;;;83.18;26.98;;;;;;;;;;5051138;28;20398;-80
2022/12/18 03:40:43;;;;;;;94.47;27.08;;;;;;;;;;5050980;28;20044;-80
2022/12/18 03:43:12;;;;;;;87.22;27.25;;;;;;;;;;5051171;28;20037;-80
2022/12/18 03:45:41;;;;;;;82.93;27.70;;;;;;;;;;5050971;28;20047;-80
2022/12/18 03:48:13;;;;;;;82.38;25.77;;;;;;;;;;5050726;28;20124;-80
2022/12/18 03:50:46;;;;;;;76.82;25.60;;;;;;;;;;5051228;28;20574;-80
2022/12/18 03:53:24;;;;;;;81.07;24.75;;;;;;;;;;5051220;28;20045;-80
2022/12/18 03:55:51;;;;;;;79.25;24.40;;;;;;;;;;5054628;28;20040;-80
2022/12/18 03:58:19;;;;;;;81.28;27.48;;;;;;;;;;5054784;28;20375;-80
2022/12/18 04:00:46;;;;;;;78.25;24.92;;;;;;;;;;5038202;28;20045;-80
2022/12/18 04:03:13;;;;;;;86.53;27.52;;;;;;;;;;5054793;28;20521;-80
2022/12/18 04:05:39;;;;;;;87.60;26.98;;;;;;;;;;5053470;28;20044;-80
2022/12/18 04:08:05;;;;;;;79.47;25.33;;;;;;;;;;5042650;28;20094;-80
2022/12/18 04:10:31;;;;;;;73.25;24.08;;;;;;;;;;5054148;28;20052;-80
2022/12/18 04:12:58;;;;;;;82.97;26.23;;;;;;;;;;5054665;28;20044;-80
2022/12/18 04:15:24;;;;;;;74.55;25.02;;;;;;;;;;5054462;28;20083;-80
2022/12/18 04:17:50;;;;;;;79.18;24.67;;;;;;;;;;5054228;28;20045;-80
2022/12/18 04:20:17;;;;;;;84.55;26.50;;;;;;;;;;5054184;28;20517;-80
2022/12/18 04:22:43;;;;;;;74.65;24.05;;;;;;;;;;5054650;28;20045;-80
2022/12/18 04:25:09;;;;;;;74.35;24.40;;;;;;;;;;5053967;28;20037;-80
2022/12/18 04:27:35;;;;;;;76.57;24.55;;;;;;;;;;5053866;28;20045;-80
2022/12/18 04:30:02;;;;;;;74.68;24.80;;;;;;;;;;5053984;28;20040;-80
2022/12/18 04:32:28;;;;;;;71.45;24.13;;;;;;;;;;5054077;28;20041;-80
2022/12/18 04:34:54;;;;;;;72.28;23.17;;;;;;;;;;5053833;28;20049;-80
2022/12/18 04:37:20;;;;;;;69.90;23.95;;;;;;;;;;5037279;28;20040;-80
2022/12/18 04:39:46;;;;;;;72.72;24.20;;;;;;;;;;5054187;28;20037;-81
2022/12/18 04:42:12;;;;;;;76.93;26.65;;;;;;;;;;5055009;28;20508;-80
2022/12/18 04:44:38;;;;;;;66.60;21.30;;;;;;;;;;5053676;28;20048;-80
2022/12/18 04:47:04;;;;;;;68.32;23.92;;;;;;;;;;5037126;28;20073;-80
2022/12/18 04:49:30;;;;;;;73.25;23.88;;;;;;;;;;5037140;28;20530;-80
2022/12/18 04:51:56;;;;;;;75.60;23.48;;;;;;;;;;5053754;28;20044;-80
2022/12/18 04:54:22;;;;;;;65.03;21.17;;;;;;;;;;5023268;28;20049;-80
2022/12/18 04:56:49;;;;;;;75.00;23.88;;;;;;;;;;5053574;28;20045;-80
2022/12/18 04:59:15;;;;;;;64.03;21.02;;;;;;;;;;5053227;28;20091;-80
2022/12/18 05:01:41;;;;;;;67.13;25.10;;;;;;;;;;5054003;28;20127;-80
2022/12/18 05:04:07;;;;;;;68.63;23.23;;;;;;;;;;5050993;28;20441;-80
2022/12/18 05:06:33;;;;;;;63.13;21.55;;;;;;;;;;5057422;28;20045;-80
2022/12/18 05:08:59;;;;;;;73.57;23.65;;;;;;;;;;5049948;28;20041;-80
2022/12/18 05:11:25;;;;;;;69.70;24.15;;;;;;;;;;5052985;28;20041;-80
2022/12/18 05:13:51;;;;;;;70.53;22.58;;;;;;;;;;5054400;28;20045;-80
2022/12/18 05:16:17;;;;;;;67.47;22.92;;;;;;;;;;5052918;28;20049;-80
2022/12/18 05:18:43;;;;;;;64.55;22.33;;;;;;;;;;5036541;28;20049;-80
2022/12/18 05:21:12;;;;;;;71.80;24.13;;;;;;;;;;5052916;28;20449;-80
2022/12/18 05:23:38;;;;;;;64.28;20.55;;;;;;;;;;5052852;28;20060;-80
2022/12/18 05:26:07;;;;;;;66.05;22.38;;;;;;;;;;5053492;28;20048;-80
2022/12/18 05:28:34;;;;;;;60.30;21.13;;;;;;;;;;5052689;28;20037;-80
2022/12/18 05:31:02;;;;;;;61.35;22.23;;;;;;;;;;5036126;28;20053;-80
2022/12/18 05:33:29;;;;;;;65.55;21.23;;;;;;;;;;5067766;28;20040;-80
2022/12/18 05:35:57;;;;;;;60.03;21.52;;;;;;;;;;5036083;28;20041;-80
2022/12/18 05:38:24;;;;;;;65.88;21.80;;;;;;;;;;5053223;28;20536;-80
2022/12/18 05:40:50;;;;;;;58.55;20.33;;;;;;;;;;5036316;28;20060;-80
2022/12/18 05:43:17;;;;;;;56.88;21.13;;;;;;;;;;5052305;28;20048;-80
2022/12/18 05:45:43;;;;;;;63.78;22.63;;;;;;;;;;5047626;28;20046;-80
2022/12/18 05:48:09;;;;;;;63.10;22.15;;;;;;;;;;5032541;28;20048;-80
2022/12/18 05:50:39;;;;;;;54.53;20.88;;;;;;;;;;5065925;28;20131;-80
2022/12/18 05:53:05;;;;;;;54.97;21.17;;;;;;;;;;5052398;28;20033;-80
2022/12/18 05:55:39;;;;;;;64.55;22.35;;;;;;;;;;5052601;28;20041;-80
2022/12/18 05:58:07;;;;;;;53.88;18.83;;;;;;;;;;5052644;28;20499;-80
2022/12/18 06:00:34;;;;;;;49.70;17.90;;;;;;;;;;5052298;28;20033;-81
2022/12/18 06:03:01;;;;;;;63.55;21.42;;;;;;;;;;5052768;28;20147;-80
2022/12/18 06:05:27;;;;;;;61.03;20.17;;;;;;;;;;5052235;28;20075;-80
2022/12/18 06:07:53;;;;;;;54.58;20.00;;;;;;;;;;5035398;28;20117;-80
2022/12/18 06:10:19;;;;;;;51.92;18.20;;;;;;;;;;5052134;28;20041;-80
2022/12/18 06:12:45;;;;;;;53.35;19.25;;;;;;;;;;5051987;28;20040;-80
2022/12/18 06:15:11;;;;;;;61.35;21.23;;;;;;;;;;5052063;28;20045;-80
2022/12/18 06:17:37;;;;;;;61.38;21.00;;;;;;;;;;5051786;28;20045;-80
2022/12/18 06:20:06;;;;;;;51.95;19.70;;;;;;;;;;5085343;28;20059;-79
2022/12/18 06:22:32;;;;;;;56.60;19.30;;;;;;;;;;5051943;28;20052;-80
2022/12/18 06:24:59;;;;;;;46.35;16.50;;;;;;;;;;5051739;28;20052;-80
2022/12/18 06:27:25;;;;;;;58.75;19.17;;;;;;;;;;5051912;28;20033;-80
2022/12/18 06:29:51;;;;;;;53.38;20.10;;;;;;;;;;5052189;28;20124;-80
2022/12/18 06:32:17;;;;;;;48.65;16.88;;;;;;;;;;5051865;28;20052;-80
2022/12/18 06:34:43;;;;;;;52.88;18.65;;;;;;;;;;5052252;28;20106;-80
2022/12/18 06:37:09;;;;;;;52.30;19.02;;;;;;;;;;5051788;28;20064;-80
2022/12/18 06:39:35;;;;;;;48.40;18.38;;;;;;;;;;5052061;28;20045;-80
2022/12/18 06:42:01;;;;;;;54.63;19.15;;;;;;;;;;5051918;28;20179;-80
2022/12/18 06:44:27;;;;;;;55.85;19.25;;;;;;;;;;5051756;28;20045;-80
2022/12/18 06:46:53;;;;;;;49.70;19.13;;;;;;;;;;5052697;28;20063;-80
2022/12/18 06:49:19;;;;;;;44.78;18.02;;;;;;;;;;5051780;28;20393;-80
2022/12/18 06:51:45;;;;;;;54.22;19.65;;;;;;;;;;5034902;28;20036;-80
2022/12/18 06:54:11;;;;;;;54.10;18.58;;;;;;;;;;5051569;28;20043;-80
2022/12/18 06:56:37;;;;;;;45.75;18.35;;;;;;;;;;5051435;28;20048;-80
2022/12/18 06:59:04;;;;;;;46.83;17.52;;;;;;;;;;5051447;28;20120;-80
2022/12/18 07:01:30;;;;;;;47.80;18.60;;;;;;;;;;5052781;28;20041;-80
2022/12/18 07:03:56;;;;;;;47.15;19.33;;;;;;;;;;5051575;28;20573;-80
2022/12/18 07:06:23;;;;;;;51.85;18.23;;;;;;;;;;5051727;28;20486;-80
2022/12/18 07:08:50;;;;;;;43.72;17.05;;;;;;;;;;5051454;28;20037;-80
2022/12/18 07:11:17;;;;;;;43.17;17.90;;;;;;;;;;5034793;28;20045;-80
2022/12/18 07:13:43;;;;;;;45.67;18.73;;;;;;;;;;5052828;28;20052;-80
2022/12/18 07:16:13;;;;;;;41.38;16.58;;;;;;;;;;5051686;28;20041;-80
2022/12/18 07:18:39;;;;;;;47.25;18.02;;;;;;;;;;5037437;28;20037;-80
2022/12/18 07:21:12;;;;;;;48.65;18.65;;;;;;;;;;5042590;28;20060;-80
2022/12/18 07:23:38;;;;;;;46.70;17.83;;;;;;;;;;5034381;28;20049;-80
2022/12/18 07:26:05;;;;;;;48.30;21.33;;;;;;;;;;5051147;28;20037;-80
2022/12/18 07:28:32;;;;;;;40.25;16.48;;;;;;;;;;5051159;28;20037;-80
2022/12/18 07:30:58;;;;;;;49.50;20.00;;;;;;;;;;5038609;28;20460;-80
2022/12/18 07:33:25;;;;;;;46.90;19.02;;;;;;;;;;5054863;28;20052;-80
2022/12/18 07:35:51;;;;;;;63.17;24.30;;;;;;;;;;5054761;28;20041;-80
2022/12/18 07:38:17;;;;;;;52.25;22.70;;;;;;;;;;5068665;28;20040;-80
2022/12/18 07:40:43;;;;;;;52.28;22.05;;;;;;;;;;5056328;28;20077;-80
2022/12/18 07:43:09;;;;;;;47.88;21.42;;;;;;;;;;5055111;28;20033;-80
2022/12/18 07:45:36;;;;;;;39.28;15.95;;;;;;;;;;5054881;28;20064;-80
2022/12/18 07:48:02;;;;;;;51.58;22.95;;;;;;;;;;5055006;28;20491;-80
2022/12/18 07:50:28;;;;;;;52.20;21.33;;;;;;;;;;5055322;28;20044;-80
2022/12/18 07:52:54;;;;;;;43.58;20.17;;;;;;;;;;5055669;28;20049;-80
2022/12/18 07:55:20;;;;;;;48.40;19.05;;;;;;;;;;5056155;28;20127;-80
2022/12/18 07:57:46;;;;;;;49.13;19.55;;;;;;;;;;5040964;28;20072;-80
2022/12/18 08:00:13;;;;;;;41.63;17.38;;;;;;;;;;5055816;28;20041;-80
2022/12/18 08:02:39;;;;;;;43.58;17.88;;;;;;;;;;5054338;28;20041;-80
2022/12/18 08:05:05;;;;;;;42.60;17.38;;;;;;;;;;5054276;28;20126;-80
2022/12/18 08:07:31;;;;;;;49.53;17.35;;;;;;;;;;5054343;28;20033;-80
2022/12/18 08:09:57;;;;;;;40.22;16.08;;;;;;;;;;5054194;28;20036;-80
2022/12/18 08:12:23;;;;;;;44.05;16.85;;;;;;;;;;5070737;28;20107;-80
2022/12/18 08:14:49;;;;;;;45.03;19.73;;;;;;;;;;5020220;28;20049;-80
2022/12/18 08:17:16;;;;;;;42.30;15.65;;;;;;;;;;5054439;28;20053;-80
2022/12/18 08:19:43;;;;;;;43.13;17.80;;;;;;;;;;5053893;28;20406;-80
2022/12/18 08:22:09;;;;;;;44.45;16.48;;;;;;;;;;5037427;28;20037;-80
2022/12/18 08:24:35;;;;;;;41.08;17.17;;;;;;;;;;5054035;28;20484;-80
2022/12/18 08:27:01;;;;;;;38.28;16.98;;;;;;;;;;5054398;28;20047;-80
2022/12/18 08:29:27;;;;;;;40.88;17.55;;;;;;;;;;5053922;28;20151;-80
2022/12/18 08:31:53;;;;;;;41.78;16.30;;;;;;;;;;5053679;28;20045;-80
2022/12/18 08:34:19;;;;;;;39.08;16.25;;;;;;;;;;5037338;28;20045;-80
2022/12/18 08:36:45;;;;;;;42.28;16.70;;;;;;;;;;5053880;28;20049;-80
2022/12/18 08:39:11;;;;;;;37.05;16.45;;;;;;;;;;5053796;28;20041;-80
2022/12/18 08:41:37;;;;;;;36.45;15.52;;;;;;;;;;5053705;28;20041;-80
2022/12/18 08:46:48;;;;;;;38.22;16.00;;;;;;;;;;5053531;28;20124;-80
2022/12/18 08:49:14;;;;;;;36.75;15.35;;;;;;;;;;5036827;28;20033;-80
2022/12/18 08:51:40;;;;;;;33.90;14.05;;;;;;;;;;5036784;28;20045;-80
2022/12/18 08:54:07;;;;;;;31.88;15.05;;;;;;;;;;5036552;28;20091;-80
2022/12/18 08:56:33;;;;;;;34.20;14.05;;;;;;;;;;5053649;28;20111;-80
2022/12/18 08:59:00;;;;;;;28.20;12.95;;;;;;;;;;5052727;28;20053;-80
2022/12/18 09:01:26;;;;;;;34.15;15.77;;;;;;;;;;5053536;28;20158;-80
2022/12/18 09:03:52;;;;;;;30.35;13.63;;;;;;;;;;5052947;28;20049;-80
2022/12/18 09:06:19;;;;;;;28.20;14.45;;;;;;;;;;5053465;28;20452;-80
2022/12/18 09:08:45;;;;;;;30.60;13.52;;;;;;;;;;5052747;28;20084;-80
2022/12/18 09:11:18;;;;;;;27.73;13.88;;;;;;;;;;5036109;28;20458;-80
2022/12/18 09:13:44;;;;;;;28.65;14.05;;;;;;;;;;5052632;28;20148;-80
2022/12/18 09:16:10;;;;;;;28.58;13.95;;;;;;;;;;5035762;28;20055;-80
2022/12/18 09:18:36;;;;;;;27.88;13.27;;;;;;;;;;5052548;28;20127;-80
2022/12/18 09:21:13;;;;;;;24.42;12.90;;;;;;;;;;5052192;28;20561;-80
2022/12/18 09:23:39;;;;;;;25.17;12.10;;;;;;;;;;5052639;28;20485;-80
2022/12/18 09:26:05;;;;;;;22.60;11.68;;;;;;;;;;5035815;28;20079;-80
2022/12/18 09:28:32;;;;;;;22.92;11.70;;;;;;;;;;5052811;28;20473;-80
2022/12/18 09:30:58;;;;;;;21.20;10.18;;;;;;;;;;5035632;28;20037;-80
2022/12/18 09:33:24;;;;;;;23.05;11.63;;;;;;;;;;5035477;28;20083;-80
2022/12/18 09:35:50;;;;;;;23.98;11.50;;;;;;;;;;5052406;28;20045;-81
2022/12/18 09:38:20;;;;;;;25.85;11.63;;;;;;;;;;5052490;28;20452;-80
2022/12/18 09:40:50;;;;;;;21.13;10.52;;;;;;;;;;5052411;28;20069;-80
2022/12/18 09:43:21;;;;;;;23.98;10.80;;;;;;;;;;5051717;28;20033;-80
2022/12/18 09:45:54;;;;;;;22.23;11.40;;;;;;;;;;5051932;28;20037;-80
2022/12/18 09:48:26;;;;;;;21.92;11.13;;;;;;;;;;5035501;28;20136;-80
2022/12/18 09:50:54;;;;;;;22.73;10.57;;;;;;;;;;5051751;28;20029;-80
2022/12/18 09:53:22;;;;;;;19.42;10.18;;;;;;;;;;5051629;28;20041;-80
2022/12/18 09:55:48;;;;;;;20.48;10.45;;;;;;;;;;5051934;28;20142;-80
2022/12/18 09:58:26;;;;;;;20.83;10.57;;;;;;;;;;5034657;28;20048;-80
2022/12/18 10:00:53;;;;;;;20.13;10.68;;;;;;;;;;5051507;28;20095;-80
2022/12/18 10:03:19;;;;;;;19.38;10.43;;;;;;;;;;5051360;28;20045;-80
2022/12/18 10:06:03;;;;;;;20.00;9.88;;;;;;;;;;5051841;28;20065;-80
2022/12/18 10:08:48;;;;;;;19.35;10.10;;;;;;;;;;5051715;28;20037;-80
2022/12/18 10:11:33;;;;;;;21.05;9.85;;;;;;;;;;5050952;28;20044;-80
2022/12/18 10:14:04;;;;;;;19.17;9.85;;;;;;;;;;5051367;28;20041;-80
2022/12/18 10:16:40;;;;;;;23.33;10.48;;;;;;;;;;5051607;28;20072;-80
2022/12/18 10:19:18;;;;;;;18.73;9.47;;;;;;;;;;5035156;28;20639;-80
2022/12/18 10:21:47;;;;;;;17.65;8.95;;;;;;;;;;5052463;28;20135;-80
2022/12/18 10:24:22;;;;;;;18.35;9.13;;;;;;;;;;5051188;28;20060;-79
2022/12/18 10:26:48;;;;;;;20.00;9.68;;;;;;;;;;5051372;28;20044;-80
2022/12/18 10:29:15;;;;;;;16.65;8.18;;;;;;;;;;5051473;28;20489;-79
2022/12/18 10:31:41;;;;;;;16.88;8.80;;;;;;;;;;5067888;28;20130;-79
2022/12/18 10:34:14;;;;;;;14.05;7.93;;;;;;;;;;5068086;28;20044;-80
2022/12/18 10:36:40;;;;;;;16.80;8.25;;;;;;;;;;5051023;28;20410;-80
2022/12/18 10:39:20;;;;;;;16.08;8.70;;;;;;;;;;5051000;28;20574;-80
2022/12/18 10:41:46;;;;;;;13.80;7.30;;;;;;;;;;5050876;28;20040;-79
2022/12/18 10:44:18;;;;;;;20.08;8.38;;;;;;;;;;5050947;28;20037;-80
2022/12/18 10:46:49;;;;;;;15.38;8.45;;;;;;;;;;5051239;28;20044;-80
2022/12/18 10:49:28;;;;;;;14.98;8.10;;;;;;;;;;5054237;28;20037;-79
2022/12/18 10:52:13;;;;;;;15.35;7.15;;;;;;;;;;5050929;28;20044;-79
2022/12/18 10:54:39;;;;;;;14.30;7.63;;;;;;;;;;5051370;28;20515;-80
2022/12/18 10:57:24;;;;;;;13.32;6.63;;;;;;;;;;5050400;28;20036;-80
2022/12/18 10:59:52;;;;;;;10.57;4.43;;;;;;;;;;5050932;28;20040;-79
2022/12/18 11:02:27;;;;;;;13.63;7.15;;;;;;;;;;5050574;28;20044;-80
2022/12/18 11:04:54;;;;;;;10.38;5.53;;;;;;;;;;5055070;28;20036;-80
2022/12/18 11:07:20;;;;;;;16.27;7.85;;;;;;;;;;5054900;28;20422;-80
2022/12/18 11:09:59;;;;;;;17.48;7.97;;;;;;;;;;5055296;28;20041;-80
2022/12/18 11:12:28;;;;;;;17.60;7.93;;;;;;;;;;5054340;28;20508;-80
2022/12/18 11:14:55;;;;;;;15.07;7.55;;;;;;;;;;5056583;28;20061;-79
2022/12/18 11:17:28;;;;;;;15.40;7.68;;;;;;;;;;5054877;28;20565;-80
2022/12/18 11:20:06;;;;;;;13.48;7.32;;;;;;;;;;5054624;28;20057;-79
2022/12/18 11:22:34;;;;;;;13.20;7.03;;;;;;;;;;5037988;28;20045;-79
2022/12/18 11:25:00;;;;;;;16.05;7.25;;;;;;;;;;5037966;28;20045;-79
2022/12/18 11:27:27;;;;;;;15.10;6.70;;;;;;;;;;5054112;28;20033;-80
2022/12/18 11:29:53;;;;;;;15.05;7.07;;;;;;;;;;5054680;28;20417;-80
2022/12/18 11:32:28;;;;;;;13.73;7.53;;;;;;;;;;5071271;28;20379;-80
2022/12/18 11:35:11;;;;;;;13.82;7.10;;;;;;;;;;5052905;28;20044;-79
2022/12/18 11:37:37;;;;;;;14.52;8.02;;;;;;;;;;5054871;28;20389;-80
2022/12/18 11:40:08;;;;;;;14.88;7.00;;;;;;;;;;5037914;28;20045;-80
2022/12/18 11:42:34;;;;;;;14.85;7.40;;;;;;;;;;5054583;28;20516;-80
2022/12/18 11:45:15;;;;;;;16.50;7.35;;;;;;;;;;5054663;28;20045;-80
2022/12/18 11:47:44;;;;;;;15.75;7.53;;;;;;;;;;5037840;28;20605;-80
2022/12/18 11:50:19;;;;;;;16.92;8.77;;;;;;;;;;5054174;28;20048;-80
2022/12/18 11:52:46;;;;;;;14.35;7.60;;;;;;;;;;5054130;28;20055;-80
2022/12/18 11:55:14;;;;;;;15.00;7.50;;;;;;;;;;5037109;28;20060;-80
2022/12/18 11:57:41;;;;;;;13.23;6.75;;;;;;;;;;5053879;28;20078;-80
2022/12/18 12:00:13;;;;;;;14.25;7.45;;;;;;;;;;5053985;28;20060;-80
2022/12/18 12:02:48;;;;;;;14.98;7.75;;;;;;;;;;5053707;28;20124;-80
2022/12/18 12:05:29;;;;;;;13.95;6.18;;;;;;;;;;5053840;28;20041;-80
2022/12/18 12:07:58;;;;;;;14.40;7.38;;;;;;;;;;5053839;28;20076;-80
2022/12/18 12:10:29;;;;;;;27.58;10.50;;;;;;;;;;5053488;28;20036;-80
2022/12/18 12:12:58;;;;;;;34.47;13.23;;;;;;;;;;5053855;28;20056;-80
2022/12/18 12:15:42;;;;;;;22.90;10.88;;;;;;;;;;5052661;28;20075;-80
2022/12/18 12:18:08;;;;;;;15.57;8.20;;;;;;;;;;5053483;28;20045;-80
2022/12/18 12:20:53;;;;;;;15.48;6.55;;;;;;;;;;5053799;28;20053;-80
2022/12/18 12:23:19;;;;;;;17.70;8.00;;;;;;;;;;5053421;28;20044;-80
2022/12/18 12:25:51;;;;;;;23.27;9.70;;;;;;;;;;5054006;28;20072;-80
2022/12/18 12:28:24;;;;;;;16.38;8.23;;;;;;;;;;5053278;28;20033;-80
2022/12/18 12:31:06;;;;;;;13.52;6.65;;;;;;;;;;5037230;28;20048;-80
2022/12/18 12:33:52;;;;;;;17.63;8.15;;;;;;;;;;5051040;28;20072;-80
2022/12/18 12:36:27;;;;;;;17.73;7.70;;;;;;;;;;5053019;28;20049;-80
2022/12/18 12:38:55;;;;;;;14.88;7.45;;;;;;;;;;5036475;28;20143;-80
2022/12/18 12:44:13;;;;;;;15.60;8.27;;;;;;;;;;5052868;28;20084;-80
2022/12/18 12:46:41;;;;;;;12.10;6.72;;;;;;;;;;5053443;28;20079;-80
2022/12/18 12:49:14;;;;;;;16.35;7.30;;;;;;;;;;5053311;28;20044;-80
2022/12/18 12:51:42;;;;;;;13.13;6.28;;;;;;;;;;5053141;28;20068;-80
2022/12/18 12:54:22;;;;;;;15.63;7.72;;;;;;;;;;5053196;28;20488;-80
2022/12/18 12:57:11;;;;;;;14.52;7.85;;;;;;;;;;5053173;28;20045;-80
2022/12/18 12:59:56;;;;;;;16.08;8.07;;;;;;;;;;5052532;28;20083;-80
2022/12/18 13:02:25;;;;;;;14.40;7.07;;;;;;;;;;5052381;28;20040;-80
2022/12/18 13:04:51;;;;;;;15.93;7.95;;;;;;;;;;5036219;28;20041;-80
2022/12/18 13:07:28;;;;;;;13.65;6.95;;;;;;;;;;5052539;28;20485;-80
2022/12/18 13:10:13;;;;;;;15.05;7.15;;;;;;;;;;5052762;28;20090;-80
2022/12/18 13:12:55;;;;;;;15.60;8.35;;;;;;;;;;5053570;28;20106;-80
2022/12/18 13:15:23;;;;;;;16.25;8.38;;;;;;;;;;5051836;28;20052;-80
2022/12/18 13:17:49;;;;;;;15.05;7.22;;;;;;;;;;5052643;28;20494;-80
2022/12/18 13:20:16;;;;;;;13.25;7.25;;;;;;;;;;5052239;28;20084;-79
2022/12/18 13:22:49;;;;;;;14.95;8.25;;;;;;;;;;5052284;28;20060;-80
2022/12/18 13:25:34;;;;;;;13.10;6.95;;;;;;;;;;5035744;28;20037;-80
2022/12/18 13:28:05;;;;;;;15.05;7.65;;;;;;;;;;5051621;28;20083;-80
2022/12/18 13:30:34;;;;;;;20.23;10.07;;;;;;;;;;5051687;28;20124;-80
2022/12/18 13:33:16;;;;;;;17.20;9.00;;;;;;;;;;5052130;28;20072;-80
2022/12/18 13:35:45;;;;;;;15.25;7.40;;;;;;;;;;5051874;28;20041;-80
2022/12/18 13:38:30;;;;;;;13.85;7.05;;;;;;;;;;5052253;28;20460;-80
2022/12/18 13:40:57;;;;;;;15.88;7.88;;;;;;;;;;5052207;28;20410;-80
2022/12/18 13:43:59;;;;;;;17.58;7.80;;;;;;;;;;5068202;28;20068;-80
2022/12/18 13:46:25;;;;;;;14.30;7.97;;;;;;;;;;5050852;28;20041;-80
2022/12/18 13:48:56;;;;;;;14.30;7.35;;;;;;;;;;5048237;28;20497;-80
2022/12/18 13:51:22;;;;;;;15.60;8.20;;;;;;;;;;5051843;28;20033;-80
2022/12/18 13:53:51;;;;;;;16.08;7.80;;;;;;;;;;5035280;28;20120;-80
2022/12/18 13:56:17;;;;;;;14.48;7.10;;;;;;;;;;5052001;28;20041;-80
2022/12/18 13:58:43;;;;;;;14.00;8.40;;;;;;;;;;5034802;28;20044;-80
2022/12/18 14:01:22;;;;;;;15.88;8.00;;;;;;;;;;5051536;28;20086;-80
2022/12/18 14:03:48;;;;;;;17.70;9.20;;;;;;;;;;5051565;28;20045;-80
2022/12/18 14:06:15;;;;;;;15.02;8.93;;;;;;;;;;5051580;28;20091;-80
2022/12/18 14:08:42;;;;;;;15.60;9.43;;;;;;;;;;5051501;28;20033;-80
2022/12/18 14:11:18;;;;;;;16.58;8.23;;;;;;;;;;5051749;28;20037;-80
2022/12/18 14:13:44;;;;;;;;;;;;;;;;;;5051416;28;20044;-80
2022/12/18 14:16:21;;;;;;;11.35;5.97;;;;;;;;;;5051197;28;19921;-80
2022/12/18 14:18:51;;;;;;;13.00;7.05;;;;;;;;;;5067896;28;20048;-80
2022/12/18 14:21:20;;;;;;;13.88;6.97;;;;;;;;;;5051514;28;20056;-80
2022/12/18 14:23:46;;;;;;;15.50;7.07;;;;;;;;;;5051158;28;20448;-80
2022/12/18 14:26:23;;;;;;;13.40;6.80;;;;;;;;;;5051531;28;20037;-80
2022/12/18 14:28:49;;;;;;;11.88;6.47;;;;;;;;;;5050818;28;20118;-80
2022/12/18 14:31:22;;;;;;;11.57;6.40;;;;;;;;;;5051226;28;20130;-80
2022/12/18 14:33:49;;;;;;;12.48;6.63;;;;;;;;;;5032331;28;20059;-80
2022/12/18 14:36:17;;;;;;;12.68;6.47;;;;;;;;;;5051109;28;20045;-80
2022/12/18 14:38:43;;;;;;;11.27;5.90;;;;;;;;;;5050550;28;20051;-80